createdAt,value
2019-01-19T00:00:12.362Z,67.91
2019-01-19T00:01:12.359Z,68.23
2019-01-19T00:02:12.339Z,67.50
2019-01-19T00:03:12.330Z,67.08
2019-01-19T00:04:12.329Z,67.16
2019-01-19T00:05:12.315Z,67.91
2019-01-19T00:06:12.307Z,67.91
2019-01-19T00:07:12.289Z,68.02
2019-01-19T00:08:12.272Z,67.81
2019-01-19T00:09:12.266Z,67.91
2019-01-19T00:10:12.253Z,68.12
2019-01-19T00:11:12.239Z,67.08
2019-01-19T00:12:12.227Z,67.29
2019-01-19T00:13:12.214Z,67.40
2019-01-19T00:14:12.205Z,67.19
2019-01-19T00:15:13.127Z,67.16
2019-01-19T00:16:12.213Z,67.57
2019-01-19T00:17:12.175Z,66.95
2019-01-19T00:18:12.161Z,67.16
2019-01-19T00:19:12.149Z,66.67
2019-01-19T00:20:12.163Z,66.85
2019-01-19T00:21:12.125Z,66.46
2019-01-19T00:22:12.114Z,66.95
2019-01-19T00:23:12.107Z,66.95
2019-01-19T00:24:12.128Z,67.47
2019-01-19T00:25:12.085Z,67.16
2019-01-19T00:26:12.081Z,67.37
2019-01-19T00:27:12.057Z,67.26
2019-01-19T00:28:12.076Z,66.54
2019-01-19T00:29:12.036Z,67.26
2019-01-19T00:30:12.025Z,67.50
2019-01-19T00:31:12.013Z,67.19
2019-01-19T00:32:12.002Z,67.26
2019-01-19T00:33:11.991Z,67.50
2019-01-19T00:34:12.036Z,66.98
2019-01-19T00:35:17.782Z,66.95
2019-01-19T00:36:36.437Z,66.64
2019-01-19T00:37:36.426Z,66.64
2019-01-19T00:38:36.415Z,67.08
2019-01-19T00:39:36.412Z,67.19
2019-01-19T00:40:36.399Z,67.19
2019-01-19T00:41:36.386Z,67.43
2019-01-19T00:42:36.374Z,67.22
2019-01-19T00:43:36.358Z,67.63
2019-01-19T00:44:36.348Z,67.40
2019-01-19T00:45:36.336Z,68.02
2019-01-19T00:46:36.327Z,67.19
2019-01-19T00:47:36.319Z,66.98
2019-01-19T00:48:36.304Z,67.08
2019-01-19T00:49:36.293Z,66.57
2019-01-19T00:50:36.281Z,66.57
2019-01-19T00:51:36.268Z,67.16
2019-01-19T00:52:36.266Z,67.29
2019-01-19T00:53:36.252Z,67.22
2019-01-19T00:54:36.252Z,67.74
2019-01-19T00:55:36.223Z,67.53
2019-01-19T00:56:36.216Z,67.63
2019-01-19T00:57:36.211Z,67.95
2019-01-19T00:58:36.192Z,67.84
2019-01-19T00:59:36.177Z,68.26
2019-01-19T01:00:36.166Z,67.84
2019-01-19T01:01:36.160Z,68.15
2019-01-19T01:02:36.143Z,68.26
2019-01-19T01:03:36.134Z,68.26
2019-01-19T01:04:36.120Z,68.36
2019-01-19T01:05:36.109Z,67.95
2019-01-19T01:06:36.098Z,68.26
2019-01-19T01:07:36.087Z,68.05
2019-01-19T01:08:36.073Z,67.12
2019-01-19T01:09:36.065Z,67.22
2019-01-19T01:10:36.056Z,67.53
2019-01-19T01:11:36.040Z,67.32
2019-01-19T01:12:36.031Z,67.95
2019-01-19T01:13:36.021Z,67.84
2019-01-19T01:14:36.007Z,67.12
2019-01-19T01:15:35.994Z,67.63
2019-01-19T01:16:35.990Z,67.53
2019-01-19T01:17:35.977Z,68.26
2019-01-19T01:18:35.966Z,68.26
2019-01-19T01:19:35.949Z,68.15
2019-01-19T01:20:35.938Z,68.78
2019-01-19T01:21:35.925Z,68.36
2019-01-19T01:22:35.915Z,68.12
2019-01-19T01:23:35.905Z,68.15
2019-01-19T01:24:35.894Z,67.81
2019-01-19T01:25:35.882Z,67.91
2019-01-19T01:26:35.871Z,67.81
2019-01-19T01:27:35.858Z,67.50
2019-01-19T01:28:35.848Z,67.81
2019-01-19T01:29:35.836Z,68.26
2019-01-19T01:30:35.824Z,68.15
2019-01-19T01:31:35.812Z,68.43
2019-01-19T01:32:35.803Z,68.23
2019-01-19T01:33:35.789Z,68.23
2019-01-19T01:34:35.779Z,67.81
2019-01-19T01:35:35.777Z,67.91
2019-01-19T01:36:35.765Z,67.29
2019-01-19T01:37:35.753Z,67.60
2019-01-19T01:38:35.755Z,67.08
2019-01-19T01:39:35.758Z,68.12
2019-01-19T01:40:35.771Z,67.40
2019-01-19T01:41:35.709Z,67.84
2019-01-19T01:42:35.706Z,68.02
2019-01-19T01:43:35.710Z,68.05
2019-01-19T01:44:35.713Z,68.26
2019-01-19T01:45:35.656Z,68.15
2019-01-19T01:46:35.643Z,68.23
2019-01-19T01:47:35.636Z,68.23
2019-01-19T01:48:35.621Z,68.02
2019-01-19T01:49:35.609Z,67.91
2019-01-19T01:50:35.599Z,68.15
2019-01-19T01:51:35.592Z,68.26
2019-01-19T01:52:35.577Z,68.05
2019-01-19T01:53:35.563Z,68.78
2019-01-19T01:54:35.556Z,68.67
2019-01-19T01:55:35.550Z,69.09
2019-01-19T01:56:35.530Z,68.88
2019-01-19T01:57:35.518Z,68.46
2019-01-19T01:58:35.511Z,68.23
2019-01-19T01:59:35.506Z,68.23
2019-01-19T02:00:35.484Z,67.40
2019-01-19T02:01:35.472Z,67.08
2019-01-19T02:02:35.463Z,67.95
2019-01-19T02:03:35.457Z,67.95
2019-01-19T02:04:35.444Z,67.95
2019-01-19T02:05:40.211Z,67.84
2019-01-19T02:06:35.416Z,67.71
2019-01-19T02:07:35.404Z,67.19
2019-01-19T02:08:35.394Z,66.35
2019-01-19T02:09:35.382Z,66.35
2019-01-19T02:10:35.371Z,66.14
2019-01-19T02:11:35.360Z,66.67
2019-01-19T02:12:35.347Z,66.14
2019-01-19T02:13:35.339Z,66.46
2019-01-19T02:14:35.330Z,66.77
2019-01-19T02:15:35.311Z,66.98
2019-01-19T02:16:35.301Z,66.46
2019-01-19T02:17:35.290Z,66.43
2019-01-19T02:18:35.284Z,66.46
2019-01-19T02:19:35.266Z,66.35
2019-01-19T02:20:35.254Z,66.46
2019-01-19T02:21:35.242Z,66.57
2019-01-19T02:22:35.232Z,66.67
2019-01-19T02:23:35.219Z,66.46
2019-01-19T02:24:35.214Z,66.64
2019-01-19T02:25:35.203Z,65.83
2019-01-19T02:26:35.185Z,66.22
2019-01-19T02:27:35.174Z,66.35
2019-01-19T02:28:35.162Z,66.04
2019-01-19T02:29:35.153Z,66.22
2019-01-19T02:30:35.140Z,66.35
2019-01-19T02:31:35.133Z,66.14
2019-01-19T02:32:35.122Z,66.01
2019-01-19T02:33:35.107Z,65.94
2019-01-19T02:34:35.100Z,65.52
2019-01-19T02:35:35.091Z,65.60
2019-01-19T02:36:35.072Z,65.60
2019-01-19T02:37:35.063Z,65.73
2019-01-19T02:38:35.050Z,65.91
2019-01-19T02:39:35.037Z,65.63
2019-01-19T02:40:35.032Z,65.63
2019-01-19T02:41:35.016Z,65.52
2019-01-19T02:42:35.005Z,65.63
2019-01-19T02:43:34.997Z,65.52
2019-01-19T02:44:34.981Z,65.73
2019-01-19T02:45:34.971Z,65.76
2019-01-19T02:46:34.963Z,65.66
2019-01-19T02:47:34.947Z,65.73
2019-01-19T02:48:34.940Z,65.86
2019-01-19T02:49:34.925Z,65.86
2019-01-19T02:50:34.919Z,66.18
2019-01-19T02:51:34.906Z,66.28
2019-01-19T02:52:34.895Z,65.94
2019-01-19T02:53:34.888Z,65.73
2019-01-19T02:54:34.866Z,66.25
2019-01-19T02:55:34.860Z,65.94
2019-01-19T02:56:34.849Z,66.04
2019-01-19T02:57:34.831Z,66.57
2019-01-19T02:58:34.822Z,66.14
2019-01-19T02:59:34.810Z,66.04
2019-01-19T03:00:34.797Z,66.18
2019-01-19T03:01:34.785Z,66.18
2019-01-19T03:02:34.816Z,66.25
2019-01-19T03:03:34.767Z,66.35
2019-01-19T03:04:34.760Z,66.25
2019-01-19T03:05:34.740Z,65.97
2019-01-19T03:06:34.733Z,65.97
2019-01-19T03:07:34.722Z,66.07
2019-01-19T03:08:34.706Z,66.60
2019-01-19T03:09:34.694Z,66.49
2019-01-19T03:10:34.684Z,66.57
2019-01-19T03:11:34.671Z,66.49
2019-01-19T03:12:34.662Z,66.25
2019-01-19T03:13:34.648Z,66.60
2019-01-19T03:14:34.636Z,66.46
2019-01-19T03:15:34.633Z,66.46
2019-01-19T03:16:34.620Z,66.35
2019-01-19T03:17:34.605Z,66.60
2019-01-19T03:18:34.592Z,65.83
2019-01-19T03:19:34.587Z,66.38
2019-01-19T03:20:34.575Z,66.63
2019-01-19T03:21:34.556Z,67.04
2019-01-19T03:22:34.546Z,67.46
2019-01-19T03:23:34.534Z,67.46
2019-01-19T03:24:34.526Z,67.77
2019-01-19T03:25:34.516Z,67.87
2019-01-19T03:26:34.500Z,68.42
2019-01-19T03:27:34.492Z,68.39
2019-01-19T03:28:34.477Z,67.87
2019-01-19T03:29:34.466Z,68.18
2019-01-19T03:30:34.471Z,67.87
2019-01-19T03:31:34.443Z,67.87
2019-01-19T03:32:34.434Z,67.66
2019-01-19T03:33:34.427Z,67.53
2019-01-19T03:34:34.410Z,67.35
2019-01-19T03:35:34.396Z,67.35
2019-01-19T03:36:34.390Z,67.04
2019-01-19T03:37:34.379Z,67.43
2019-01-19T03:38:34.364Z,67.87
2019-01-19T03:39:34.353Z,67.32
2019-01-19T03:40:34.337Z,67.46
2019-01-19T03:41:34.328Z,67.87
2019-01-19T03:42:34.316Z,68.21
2019-01-19T03:43:34.303Z,68.21
2019-01-19T03:44:34.297Z,68.42
2019-01-19T03:45:34.283Z,68.73
2019-01-19T03:46:34.277Z,68.53
2019-01-19T03:47:34.260Z,68.32
2019-01-19T03:48:34.247Z,68.53
2019-01-19T03:49:34.235Z,68.32
2019-01-19T03:50:34.228Z,68.11
2019-01-19T03:51:34.211Z,68.53
2019-01-19T03:52:34.200Z,68.84
2019-01-19T03:53:34.195Z,68.94
2019-01-19T03:54:34.181Z,69.57
2019-01-19T03:55:34.166Z,69.26
2019-01-19T03:56:34.158Z,68.84
2019-01-19T03:57:34.145Z,68.94
2019-01-19T03:58:34.133Z,68.94
2019-01-19T03:59:34.121Z,69.18
2019-01-19T04:00:34.109Z,69.78
2019-01-19T04:01:34.101Z,69.36
2019-01-19T04:02:34.087Z,69.60
2019-01-19T04:03:34.133Z,69.60
2019-01-19T04:04:34.065Z,70.12
2019-01-19T04:05:34.054Z,69.50
2019-01-19T04:06:34.048Z,69.47
2019-01-19T04:07:34.031Z,69.60
2019-01-19T04:08:34.020Z,69.91
2019-01-19T04:09:34.008Z,69.91
2019-01-19T04:10:33.997Z,69.98
2019-01-19T04:11:33.985Z,69.78
2019-01-19T04:12:33.972Z,69.29
2019-01-19T04:13:33.963Z,69.15
2019-01-19T04:14:33.953Z,69.04
2019-01-19T04:15:33.937Z,69.29
2019-01-19T04:16:33.934Z,68.84
2019-01-19T04:17:33.918Z,68.53
2019-01-19T04:18:33.902Z,69.15
2019-01-19T04:19:33.904Z,68.94
2019-01-19T04:20:33.881Z,68.73
2019-01-19T04:21:34.071Z,69.15
2019-01-19T04:22:33.861Z,68.94
2019-01-19T04:23:33.846Z,68.94
2019-01-19T04:24:33.835Z,68.84
2019-01-19T04:25:33.821Z,68.94
2019-01-19T04:26:33.812Z,68.42
2019-01-19T04:27:33.800Z,68.53
2019-01-19T04:28:33.789Z,68.42
2019-01-19T04:29:33.780Z,68.63
2019-01-19T04:30:33.766Z,68.63
2019-01-19T04:31:33.760Z,69.04
2019-01-19T04:32:33.750Z,68.84
2019-01-19T04:33:33.737Z,68.94
2019-01-19T04:34:33.723Z,69.04
2019-01-19T04:35:33.717Z,68.84
2019-01-19T04:36:33.703Z,68.84
2019-01-19T04:37:33.685Z,68.32
2019-01-19T04:38:33.753Z,68.32
2019-01-19T04:39:33.663Z,68.84
2019-01-19T04:40:33.650Z,68.94
2019-01-19T04:41:33.642Z,68.84
2019-01-19T04:42:33.630Z,69.04
2019-01-19T04:43:33.620Z,68.94
2019-01-19T04:44:33.608Z,68.42
2019-01-19T04:45:33.593Z,68.63
2019-01-19T04:46:33.582Z,68.84
2019-01-19T04:47:33.580Z,68.84
2019-01-19T04:48:33.558Z,68.63
2019-01-19T04:49:33.548Z,69.04
2019-01-19T04:50:33.536Z,68.63
2019-01-19T04:51:33.525Z,68.42
2019-01-19T04:52:33.513Z,68.53
2019-01-19T04:53:33.501Z,68.53
2019-01-19T04:54:33.491Z,68.53
2019-01-19T04:55:33.480Z,68.42
2019-01-19T04:56:33.468Z,68.32
2019-01-19T04:57:33.456Z,68.53
2019-01-19T04:58:33.455Z,68.84
2019-01-19T04:59:33.434Z,68.32
2019-01-19T05:00:33.424Z,68.63
2019-01-19T05:01:33.409Z,68.73
2019-01-19T05:02:33.398Z,68.53
2019-01-19T05:03:33.390Z,68.29
2019-01-19T05:04:33.378Z,67.77
2019-01-19T05:05:33.371Z,68.39
2019-01-19T05:06:33.354Z,68.39
2019-01-19T05:07:33.343Z,67.77
2019-01-19T05:08:33.334Z,67.87
2019-01-19T05:09:33.320Z,67.77
2019-01-19T05:10:33.308Z,68.18
2019-01-19T05:11:33.299Z,68.18
2019-01-19T05:12:33.288Z,67.95
2019-01-19T05:13:33.273Z,67.98
2019-01-19T05:14:33.261Z,68.18
2019-01-19T05:15:33.256Z,68.08
2019-01-19T05:16:33.238Z,68.18
2019-01-19T05:17:33.229Z,68.18
2019-01-19T05:18:33.218Z,68.21
2019-01-19T05:19:33.203Z,67.98
2019-01-19T05:20:33.197Z,68.18
2019-01-19T05:22:33.172Z,68.42
2019-01-19T05:23:33.163Z,68.60
2019-01-19T05:24:33.146Z,68.84
2019-01-19T05:25:33.141Z,68.73
2019-01-19T05:26:33.124Z,69.26
2019-01-19T05:27:33.118Z,69.15
2019-01-19T05:28:33.101Z,69.57
2019-01-19T05:29:33.089Z,69.15
2019-01-19T05:30:33.076Z,69.04
2019-01-19T05:31:33.066Z,69.47
2019-01-19T05:32:33.054Z,69.36
2019-01-19T05:33:33.052Z,69.67
2019-01-19T05:34:33.117Z,69.57
2019-01-19T05:35:33.023Z,69.36
2019-01-19T05:36:38.242Z,69.57
2019-01-19T05:37:32.998Z,69.36
2019-01-19T05:38:32.986Z,69.57
2019-01-19T05:39:32.982Z,69.47
2019-01-19T05:40:32.975Z,69.50
2019-01-19T05:41:34.952Z,69.67
2019-01-19T05:42:32.941Z,69.67
2019-01-19T05:43:32.934Z,69.70
2019-01-19T05:44:32.924Z,70.01
2019-01-19T05:45:32.906Z,69.60
2019-01-19T05:46:32.896Z,70.22
2019-01-19T05:47:32.887Z,70.25
2019-01-19T05:48:32.871Z,70.67
2019-01-19T05:49:32.865Z,70.36
2019-01-19T05:50:57.331Z,70.43
2019-01-19T05:51:57.318Z,70.36
2019-01-19T05:52:57.310Z,70.78
2019-01-19T05:53:57.300Z,70.67
2019-01-19T05:54:57.285Z,70.78
2019-01-19T05:55:57.279Z,70.78
2019-01-19T05:56:57.266Z,70.47
2019-01-19T05:57:57.253Z,71.71
2019-01-19T05:58:57.242Z,70.43
2019-01-19T05:59:57.233Z,70.47
2019-01-19T06:00:57.220Z,70.53
2019-01-19T06:01:57.206Z,70.74
2019-01-19T06:02:57.195Z,70.53
2019-01-19T06:03:57.186Z,70.64
2019-01-19T06:04:57.172Z,70.43
2019-01-19T06:05:57.165Z,70.01
2019-01-19T06:06:57.148Z,69.91
2019-01-19T06:07:57.137Z,71.37
2019-01-19T06:08:57.134Z,71.30
2019-01-19T06:09:57.146Z,71.09
2019-01-19T06:10:57.101Z,70.98
2019-01-19T06:11:57.093Z,71.30
2019-01-19T06:12:57.083Z,71.09
2019-01-19T06:13:57.072Z,71.30
2019-01-19T06:14:57.065Z,70.88
2019-01-19T06:15:57.045Z,71.09
2019-01-19T06:16:57.037Z,70.95
2019-01-19T06:17:57.030Z,71.06
2019-01-19T06:18:57.013Z,71.06
2019-01-19T06:19:56.997Z,70.74
2019-01-19T06:20:56.989Z,71.37
2019-01-19T06:21:56.975Z,70.12
2019-01-19T06:22:56.965Z,71.37
2019-01-19T06:23:56.960Z,71.44
2019-01-19T06:24:56.943Z,70.81
2019-01-19T06:25:56.929Z,71.02
2019-01-19T06:26:56.926Z,70.40
2019-01-19T06:27:56.918Z,70.09
2019-01-19T06:28:56.900Z,70.09
2019-01-19T06:29:56.887Z,70.40
2019-01-19T06:30:56.873Z,70.81
2019-01-19T06:31:56.862Z,70.09
2019-01-19T06:32:56.849Z,70.40
2019-01-19T06:33:56.846Z,71.44
2019-01-19T06:34:56.834Z,71.02
2019-01-19T06:35:56.825Z,71.13
2019-01-19T06:36:56.808Z,71.13
2019-01-19T06:37:56.796Z,71.64
2019-01-19T06:38:56.788Z,70.50
2019-01-19T06:39:56.771Z,70.40
2019-01-19T06:40:56.773Z,70.30
2019-01-19T06:41:56.770Z,70.19
2019-01-19T06:42:56.777Z,70.19
2019-01-19T06:43:56.783Z,70.61
2019-01-19T06:44:56.718Z,70.40
2019-01-19T06:45:56.719Z,70.61
2019-01-19T06:46:56.725Z,70.61
2019-01-19T06:47:56.729Z,70.61
2019-01-19T06:48:56.669Z,70.37
2019-01-19T06:49:56.655Z,70.26
2019-01-19T06:50:56.643Z,70.47
2019-01-19T06:51:56.630Z,70.16
2019-01-19T06:52:56.621Z,70.16
2019-01-19T06:54:01.507Z,69.64
2019-01-19T06:54:56.604Z,69.74
2019-01-19T06:55:56.591Z,69.85
2019-01-19T06:56:56.575Z,69.67
2019-01-19T06:57:56.566Z,69.67
2019-01-19T06:58:56.569Z,70.19
2019-01-19T06:59:56.546Z,70.64
2019-01-19T07:00:56.529Z,71.16
2019-01-19T07:01:56.521Z,71.37
2019-01-19T07:02:56.513Z,71.06
2019-01-19T07:03:56.495Z,70.84
2019-01-19T07:04:56.498Z,70.74
2019-01-19T07:05:56.471Z,70.95
2019-01-19T07:07:02.551Z,70.95
2019-01-19T07:08:20.932Z,70.71
2019-01-19T07:09:20.928Z,71.06
2019-01-19T07:10:20.910Z,71.47
2019-01-19T07:11:20.901Z,71.27
2019-01-19T07:12:20.885Z,70.95
2019-01-19T07:13:20.874Z,71.06
2019-01-19T07:14:20.864Z,70.84
2019-01-19T07:15:20.851Z,70.74
2019-01-19T07:16:20.842Z,71.16
2019-01-19T07:17:20.841Z,71.16
2019-01-19T07:18:20.817Z,71.78
2019-01-19T07:19:20.807Z,72.86
2019-01-19T07:20:20.802Z,72.55
2019-01-19T07:21:20.788Z,72.34
2019-01-19T07:22:20.772Z,72.51
2019-01-19T07:23:20.759Z,72.41
2019-01-19T07:24:20.750Z,72.72
2019-01-19T07:25:20.743Z,72.44
2019-01-19T07:26:20.728Z,72.34
2019-01-19T07:27:20.722Z,73.17
2019-01-19T07:28:20.702Z,73.48
2019-01-19T07:29:20.694Z,73.62
2019-01-19T07:30:20.683Z,74.35
2019-01-19T07:31:20.669Z,74.04
2019-01-19T07:32:20.660Z,74.14
2019-01-19T07:33:20.646Z,74.24
2019-01-19T07:34:20.634Z,74.24
2019-01-19T07:35:20.629Z,74.00
2019-01-19T07:36:20.611Z,74.04
2019-01-19T07:37:20.600Z,74.32
2019-01-19T07:38:20.594Z,73.69
2019-01-19T07:39:20.577Z,73.27
2019-01-19T07:40:20.565Z,73.27
2019-01-19T07:41:20.559Z,72.86
2019-01-19T07:42:20.542Z,73.07
2019-01-19T07:43:20.531Z,72.34
2019-01-19T07:44:20.520Z,72.96
2019-01-19T07:45:20.513Z,73.07
2019-01-19T07:46:20.499Z,72.82
2019-01-19T07:47:20.489Z,72.41
2019-01-19T07:48:20.473Z,72.51
2019-01-19T07:49:20.468Z,72.10
2019-01-19T07:50:20.457Z,72.51
2019-01-19T07:51:20.444Z,72.41
2019-01-19T07:52:20.430Z,72.51
2019-01-19T07:53:20.419Z,72.41
2019-01-19T07:54:20.405Z,72.82
2019-01-19T07:55:20.396Z,71.89
2019-01-19T07:56:20.384Z,72.93
2019-01-19T07:57:20.373Z,71.23
2019-01-19T07:58:20.364Z,71.75
2019-01-19T07:59:20.352Z,71.30
2019-01-19T08:00:21.792Z,71.09
2019-01-19T08:01:20.328Z,70.89
2019-01-19T08:02:20.315Z,71.48
2019-01-19T08:03:20.304Z,70.44
2019-01-19T08:04:20.294Z,70.23
2019-01-19T08:05:20.343Z,70.64
2019-01-19T08:06:20.269Z,70.41
2019-01-19T08:07:20.261Z,70.20
2019-01-19T08:08:20.250Z,69.96
2019-01-19T08:09:20.241Z,69.54
2019-01-19T08:10:20.427Z,69.78
2019-01-19T08:11:20.216Z,69.65
2019-01-19T08:12:20.203Z,69.23
2019-01-19T08:13:20.199Z,68.92
2019-01-19T08:14:20.183Z,69.44
2019-01-19T08:15:20.167Z,68.82
2019-01-19T08:16:20.155Z,69.03
2019-01-19T08:17:20.150Z,68.82
2019-01-19T08:18:20.133Z,68.92
2019-01-19T08:19:20.125Z,69.00
2019-01-19T08:20:20.112Z,69.10
2019-01-19T08:21:20.102Z,69.10
2019-01-19T08:22:20.094Z,68.48
2019-01-19T08:23:20.076Z,68.27
2019-01-19T08:24:20.070Z,68.54
2019-01-19T08:25:20.054Z,67.61
2019-01-19T08:26:20.047Z,67.61
2019-01-19T08:27:20.033Z,67.61
2019-01-19T08:28:20.022Z,66.96
2019-01-19T08:29:20.013Z,67.16
2019-01-19T08:30:20.009Z,66.54
2019-01-19T08:31:19.983Z,66.54
2019-01-19T08:32:19.972Z,66.31
2019-01-19T08:33:19.963Z,66.51
2019-01-19T08:34:19.954Z,66.10
2019-01-19T08:35:19.939Z,66.10
2019-01-19T08:36:19.930Z,65.55
2019-01-19T08:37:24.458Z,65.55
2019-01-19T08:38:19.903Z,65.63
2019-01-19T08:39:19.894Z,65.21
2019-01-19T08:40:19.881Z,63.84
2019-01-19T08:41:19.873Z,63.91
2019-01-19T08:42:19.860Z,63.26
2019-01-19T08:43:19.853Z,62.09
2019-01-19T08:44:19.835Z,61.86
2019-01-19T08:45:19.831Z,60.80
2019-01-19T08:46:19.814Z,59.91
2019-01-19T08:47:19.802Z,59.71
2019-01-19T08:48:19.791Z,59.06
2019-01-19T08:49:19.781Z,58.42
2019-01-19T08:50:19.769Z,57.67
2019-01-19T08:51:19.761Z,57.34
2019-01-19T08:52:19.750Z,55.76
2019-01-19T08:53:19.733Z,54.81
2019-01-19T08:54:19.748Z,55.25
2019-01-19T08:55:19.717Z,54.91
2019-01-19T08:56:19.705Z,54.58
2019-01-19T08:57:19.689Z,54.22
2019-01-19T08:58:19.679Z,53.35
2019-01-19T08:59:19.671Z,51.89
2019-01-19T09:00:19.658Z,50.87
2019-01-19T09:01:19.649Z,51.12
2019-01-19T09:02:19.637Z,52.04
2019-01-19T09:03:19.628Z,52.17
2019-01-19T09:04:19.618Z,51.73
2019-01-19T09:05:19.609Z,52.02
2019-01-19T09:06:19.587Z,51.38
2019-01-19T09:07:19.576Z,49.79
2019-01-19T09:08:19.570Z,49.06
2019-01-19T09:09:19.551Z,48.87
2019-01-19T09:10:19.542Z,48.98
2019-01-19T09:11:19.535Z,49.82
2019-01-19T09:12:19.518Z,49.59
2019-01-19T09:13:19.506Z,49.98
2019-01-19T09:14:19.498Z,48.32
2019-01-19T09:15:19.487Z,47.90
2019-01-19T09:16:19.474Z,47.90
2019-01-19T09:17:19.502Z,48.11
2019-01-19T09:18:19.456Z,48.08
2019-01-19T09:19:19.439Z,46.82
2019-01-19T09:20:19.432Z,45.85
2019-01-19T09:21:19.420Z,45.20
2019-01-19T09:22:19.416Z,44.44
2019-01-19T09:23:19.396Z,43.91
2019-01-19T09:24:19.394Z,42.14
2019-01-19T09:25:19.372Z,41.83
2019-01-19T09:26:19.364Z,42.32
2019-01-19T09:27:19.349Z,44.48
2019-01-19T09:28:19.338Z,44.75
2019-01-19T09:29:19.327Z,45.89
2019-01-19T09:30:19.324Z,46.30
2019-01-19T09:31:19.308Z,44.32
2019-01-19T09:32:19.291Z,44.20
2019-01-19T09:33:19.277Z,43.95
2019-01-19T09:34:19.269Z,44.07
2019-01-19T09:35:19.262Z,43.89
2019-01-19T09:36:19.244Z,43.95
2019-01-19T09:37:19.234Z,43.62
2019-01-19T09:38:19.226Z,42.59
2019-01-19T09:39:19.208Z,42.37
2019-01-19T09:40:19.199Z,42.16
2019-01-19T09:41:19.191Z,41.97
2019-01-19T09:42:19.179Z,42.40
2019-01-19T09:43:19.170Z,43.56
2019-01-19T09:44:19.152Z,44.07
2019-01-19T09:45:19.140Z,44.36
2019-01-19T09:46:19.131Z,43.04
2019-01-19T09:47:19.116Z,43.65
2019-01-19T09:48:19.105Z,42.81
2019-01-19T09:49:19.093Z,42.08
2019-01-19T09:50:19.082Z,42.51
2019-01-19T09:51:19.073Z,42.05
2019-01-19T09:52:21.311Z,41.63
2019-01-19T09:53:19.048Z,41.44
2019-01-19T09:54:19.046Z,42.52
2019-01-19T09:55:19.027Z,43.42
2019-01-19T09:56:19.015Z,42.26
2019-01-19T09:57:19.005Z,41.71
2019-01-19T09:58:18.994Z,41.91
2019-01-19T09:59:18.981Z,41.29
2019-01-19T10:01:18.961Z,39.62
2019-01-19T10:02:18.953Z,39.42
2019-01-19T10:03:18.937Z,39.66
2019-01-19T10:04:18.924Z,41.58
2019-01-19T10:05:18.913Z,42.79
2019-01-19T10:06:18.904Z,44.26
2019-01-19T10:07:18.892Z,45.81
2019-01-19T10:08:18.880Z,45.61
2019-01-19T10:09:18.876Z,44.57
2019-01-19T10:10:18.858Z,44.42
2019-01-19T10:11:18.845Z,44.00
2019-01-19T10:12:18.835Z,43.59
2019-01-19T10:13:18.827Z,44.12
2019-01-19T10:14:18.815Z,45.71
2019-01-19T10:15:18.800Z,45.81
2019-01-19T10:16:18.792Z,46.22
2019-01-19T10:17:18.783Z,45.71
2019-01-19T10:18:18.767Z,45.63
2019-01-19T10:19:18.764Z,45.86
2019-01-19T10:20:18.747Z,46.88
2019-01-19T10:21:18.733Z,47.11
2019-01-19T10:22:18.723Z,47.29
2019-01-19T10:23:18.710Z,46.96
2019-01-19T10:24:18.701Z,45.80
2019-01-19T10:25:18.693Z,45.88
2019-01-19T10:26:18.679Z,44.20
2019-01-19T10:27:18.667Z,44.00
2019-01-19T10:28:18.685Z,44.18
2019-01-19T10:29:18.647Z,44.14
2019-01-19T10:30:18.636Z,42.46
2019-01-19T10:31:18.621Z,41.91
2019-01-19T10:32:18.614Z,40.41
2019-01-19T10:33:19.384Z,42.51
2019-01-19T10:34:18.589Z,42.48
2019-01-19T10:35:18.588Z,41.94
2019-01-19T10:36:18.581Z,41.59
2019-01-19T10:37:18.554Z,39.94
2019-01-19T10:38:18.546Z,40.33
2019-01-19T10:39:18.534Z,39.60
2019-01-19T10:40:18.522Z,38.96
2019-01-19T10:41:18.509Z,38.43
2019-01-19T10:42:18.496Z,38.13
2019-01-19T10:43:18.485Z,37.68
2019-01-19T10:44:18.478Z,37.24
2019-01-19T10:45:18.463Z,37.03
2019-01-19T10:46:18.455Z,36.52
2019-01-19T10:47:18.443Z,36.00
2019-01-19T10:48:18.428Z,36.20
2019-01-19T10:49:18.416Z,35.37
2019-01-19T10:50:18.408Z,35.36
2019-01-19T10:51:18.391Z,35.66
2019-01-19T10:52:18.389Z,35.24
2019-01-19T10:53:18.370Z,34.92
2019-01-19T10:54:18.358Z,34.01
2019-01-19T10:55:18.347Z,33.71
2019-01-19T10:56:18.335Z,33.89
2019-01-19T10:57:18.328Z,33.79
2019-01-19T10:58:18.312Z,34.01
2019-01-19T10:59:18.301Z,34.50
2019-01-19T11:00:18.290Z,33.79
2019-01-19T11:01:18.278Z,33.49
2019-01-19T11:02:18.272Z,34.23
2019-01-19T11:03:18.259Z,33.84
2019-01-19T11:04:18.249Z,35.27
2019-01-19T11:05:18.234Z,36.00
2019-01-19T11:06:18.220Z,35.39
2019-01-19T11:07:18.211Z,35.61
2019-01-19T11:08:18.214Z,35.61
2019-01-19T11:09:18.187Z,35.52
2019-01-19T11:10:18.177Z,35.22
2019-01-19T11:11:18.164Z,36.54
2019-01-19T11:12:18.153Z,35.74
2019-01-19T11:13:18.143Z,37.38
2019-01-19T11:14:18.129Z,37.48
2019-01-19T11:15:18.129Z,37.48
2019-01-19T11:16:18.108Z,36.37
2019-01-19T11:17:18.098Z,37.04
2019-01-19T11:18:18.086Z,36.01
2019-01-19T11:19:18.073Z,35.78
2019-01-19T11:20:18.063Z,35.27
2019-01-19T11:21:18.050Z,34.95
2019-01-19T11:22:18.038Z,34.74
2019-01-19T11:23:18.031Z,34.41
2019-01-19T11:24:18.023Z,34.74
2019-01-19T11:25:18.067Z,34.83
2019-01-19T11:26:18.000Z,34.63
2019-01-19T11:27:17.984Z,34.21
2019-01-19T11:28:17.974Z,33.69
2019-01-19T11:29:17.961Z,33.49
2019-01-19T11:30:17.949Z,33.29
2019-01-19T11:31:17.938Z,32.38
2019-01-19T11:32:17.925Z,33.42
2019-01-19T11:33:17.916Z,34.95
2019-01-19T11:34:17.908Z,34.94
2019-01-19T11:35:17.898Z,34.74
2019-01-19T11:36:17.882Z,34.61
2019-01-19T11:37:17.879Z,33.79
2019-01-19T11:38:20.235Z,33.58
2019-01-19T11:39:19.435Z,33.56
2019-01-19T11:40:17.836Z,32.55
2019-01-19T11:41:17.828Z,32.77
2019-01-19T11:42:17.817Z,32.57
2019-01-19T11:43:17.805Z,34.14
2019-01-19T11:44:17.802Z,35.22
2019-01-19T11:45:17.787Z,36.18
2019-01-19T11:46:17.789Z,37.16
2019-01-19T11:47:17.795Z,36.13
2019-01-19T11:48:17.794Z,35.30
2019-01-19T11:49:17.737Z,35.30
2019-01-19T11:50:17.738Z,35.93
2019-01-19T11:51:17.745Z,35.05
2019-01-19T11:52:17.747Z,37.13
2019-01-19T11:53:17.691Z,37.25
2019-01-19T11:54:17.685Z,37.37
2019-01-19T11:55:17.672Z,37.57
2019-01-19T11:56:17.661Z,38.26
2019-01-19T11:57:17.649Z,38.13
2019-01-19T11:58:17.639Z,37.59
2019-01-19T11:59:17.629Z,36.25
2019-01-19T12:00:17.614Z,35.41
2019-01-19T12:01:17.602Z,35.58
2019-01-19T12:02:17.591Z,34.77
2019-01-19T12:03:17.581Z,33.84
2019-01-19T12:04:17.569Z,34.16
2019-01-19T12:05:17.567Z,35.52
2019-01-19T12:06:17.545Z,35.46
2019-01-19T12:07:18.449Z,36.73
2019-01-19T12:08:19.730Z,38.35
2019-01-19T12:09:17.518Z,37.13
2019-01-19T12:10:17.504Z,37.94
2019-01-19T12:11:17.491Z,36.99
2019-01-19T12:12:17.479Z,36.35
2019-01-19T12:13:17.468Z,35.85
2019-01-19T12:14:17.458Z,36.96
2019-01-19T12:15:17.445Z,35.30
2019-01-19T12:16:17.437Z,35.32
2019-01-19T12:17:17.424Z,35.30
2019-01-19T12:18:17.414Z,35.30
2019-01-19T12:19:17.402Z,35.51
2019-01-19T12:20:17.393Z,35.51
2019-01-19T12:21:17.379Z,35.94
2019-01-19T12:22:41.846Z,35.65
2019-01-19T12:23:41.833Z,35.52
2019-01-19T12:24:41.824Z,35.54
2019-01-19T12:25:41.813Z,35.35
2019-01-19T12:26:41.843Z,36.69
2019-01-19T12:27:41.792Z,37.20
2019-01-19T12:28:41.778Z,36.89
2019-01-19T12:29:41.765Z,37.21
2019-01-19T12:30:41.758Z,37.25
2019-01-19T12:31:41.746Z,38.57
2019-01-19T12:32:41.739Z,38.06
2019-01-19T12:33:41.764Z,37.34
2019-01-19T12:34:41.709Z,36.99
2019-01-19T12:35:41.697Z,36.77
2019-01-19T12:36:41.688Z,36.35
2019-01-19T12:37:41.673Z,35.63
2019-01-19T12:38:41.668Z,35.10
2019-01-19T12:39:41.674Z,35.12
2019-01-19T12:40:41.639Z,35.30
2019-01-19T12:41:41.629Z,34.99
2019-01-19T12:42:41.616Z,34.77
2019-01-19T12:43:41.607Z,35.08
2019-01-19T12:44:41.594Z,34.48
2019-01-19T12:45:41.583Z,34.88
2019-01-19T12:46:41.572Z,35.65
2019-01-19T12:47:41.561Z,35.34
2019-01-19T12:48:41.549Z,35.54
2019-01-19T12:49:41.543Z,35.52
2019-01-19T12:50:41.531Z,35.41
2019-01-19T12:51:41.515Z,35.81
2019-01-19T12:52:41.505Z,34.99
2019-01-19T12:53:41.510Z,35.00
2019-01-19T12:54:41.483Z,35.43
2019-01-19T12:55:41.471Z,35.34